sensor_id;sensor_type;location;lat;lon;timestamp;P1;durP1;ratioP1;P2;durP2;ratioP2
68803;SDS011;55787;52.678;13.314;2023-07-13T00:01:48;7.88;;;2.00;;
68803;SDS011;55787;52.678;13.314;2023-07-13T00:04:16;6.55;;;1.88;;
68803;SDS011;55787;52.678;13.314;2023-07-13T00:06:45;8.73;;;2.30;;
68803;SDS011;55787;52.678;13.314;2023-07-13T00:09:14;6.53;;;2.22;;
68803;SDS011;55787;52.678;13.314;2023-07-13T00:11:41;6.93;;;2.20;;
68803;SDS011;55787;52.678;13.314;2023-07-13T00:14:09;6.97;;;2.15;;
68803;SDS011;55787;52.678;13.314;2023-07-13T00:16:37;9.02;;;2.25;;
68803;SDS011;55787;52.678;13.314;2023-07-13T00:19:06;9.80;;;2.17;;
68803;SDS011;55787;52.678;13.314;2023-07-13T00:21:33;7.15;;;2.22;;
68803;SDS011;55787;52.678;13.314;2023-07-13T00:24:01;7.07;;;2.17;;
68803;SDS011;55787;52.678;13.314;2023-07-13T00:26:29;8.30;;;2.40;;
68803;SDS011;55787;52.678;13.314;2023-07-13T00:28:56;8.73;;;2.40;;
68803;SDS011;55787;52.678;13.314;2023-07-13T00:31:23;7.30;;;2.08;;
68803;SDS011;55787;52.678;13.314;2023-07-13T00:33:50;7.70;;;2.40;;
68803;SDS011;55787;52.678;13.314;2023-07-13T00:36:17;7.20;;;2.00;;
68803;SDS011;55787;52.678;13.314;2023-07-13T00:38:46;10.02;;;2.42;;
68803;SDS011;55787;52.678;13.314;2023-07-13T00:41:13;8.57;;;2.35;;
68803;SDS011;55787;52.678;13.314;2023-07-13T00:43:40;9.10;;;2.47;;
68803;SDS011;55787;52.678;13.314;2023-07-13T00:46:12;9.63;;;2.75;;
68803;SDS011;55787;52.678;13.314;2023-07-13T00:48:42;8.32;;;2.40;;
68803;SDS011;55787;52.678;13.314;2023-07-13T00:51:11;7.78;;;2.35;;
68803;SDS011;55787;52.678;13.314;2023-07-13T00:53:39;6.97;;;2.45;;
68803;SDS011;55787;52.678;13.314;2023-07-13T00:56:06;8.02;;;2.35;;
68803;SDS011;55787;52.678;13.314;2023-07-13T00:58:33;8.95;;;2.42;;
68803;SDS011;55787;52.678;13.314;2023-07-13T01:01:01;7.82;;;2.30;;
68803;SDS011;55787;52.678;13.314;2023-07-13T01:03:27;8.90;;;2.55;;
68803;SDS011;55787;52.678;13.314;2023-07-13T01:05:55;10.00;;;2.30;;
68803;SDS011;55787;52.678;13.314;2023-07-13T01:08:22;9.60;;;2.78;;
68803;SDS011;55787;52.678;13.314;2023-07-13T01:10:53;8.45;;;2.50;;
68803;SDS011;55787;52.678;13.314;2023-07-13T01:13:21;6.75;;;2.28;;
68803;SDS011;55787;52.678;13.314;2023-07-13T01:15:48;8.77;;;2.50;;
68803;SDS011;55787;52.678;13.314;2023-07-13T01:18:22;9.07;;;2.50;;
68803;SDS011;55787;52.678;13.314;2023-07-13T01:20:58;8.20;;;2.38;;
68803;SDS011;55787;52.678;13.314;2023-07-13T01:23:30;7.30;;;2.80;;
68803;SDS011;55787;52.678;13.314;2023-07-13T01:25:59;7.03;;;2.17;;
68803;SDS011;55787;52.678;13.314;2023-07-13T01:28:27;8.10;;;2.67;;
68803;SDS011;55787;52.678;13.314;2023-07-13T01:30:55;8.60;;;2.70;;
68803;SDS011;55787;52.678;13.314;2023-07-13T01:33:24;9.13;;;2.70;;
68803;SDS011;55787;52.678;13.314;2023-07-13T01:35:51;7.40;;;2.50;;
68803;SDS011;55787;52.678;13.314;2023-07-13T01:38:19;9.38;;;2.65;;
68803;SDS011;55787;52.678;13.314;2023-07-13T01:40:49;8.85;;;2.85;;
68803;SDS011;55787;52.678;13.314;2023-07-13T01:43:17;9.32;;;2.95;;
68803;SDS011;55787;52.678;13.314;2023-07-13T01:45:44;11.10;;;2.90;;
68803;SDS011;55787;52.678;13.314;2023-07-13T01:48:12;7.90;;;2.63;;
68803;SDS011;55787;52.678;13.314;2023-07-13T01:50:39;9.18;;;2.75;;
68803;SDS011;55787;52.678;13.314;2023-07-13T01:53:06;8.57;;;2.72;;
68803;SDS011;55787;52.678;13.314;2023-07-13T01:55:34;8.30;;;2.67;;
68803;SDS011;55787;52.678;13.314;2023-07-13T01:58:01;8.85;;;2.50;;
68803;SDS011;55787;52.678;13.314;2023-07-13T02:00:28;8.80;;;2.75;;
68803;SDS011;55787;52.678;13.314;2023-07-13T02:02:55;8.27;;;2.60;;
68803;SDS011;55787;52.678;13.314;2023-07-13T02:05:22;8.63;;;2.85;;
68803;SDS011;55787;52.678;13.314;2023-07-13T02:07:49;8.50;;;2.83;;
68803;SDS011;55787;52.678;13.314;2023-07-13T02:10:16;8.38;;;3.00;;
68803;SDS011;55787;52.678;13.314;2023-07-13T02:12:43;8.85;;;2.75;;
68803;SDS011;55787;52.678;13.314;2023-07-13T02:15:11;8.88;;;2.83;;
68803;SDS011;55787;52.678;13.314;2023-07-13T02:17:37;9.68;;;2.67;;
68803;SDS011;55787;52.678;13.314;2023-07-13T02:20:06;8.68;;;2.97;;
68803;SDS011;55787;52.678;13.314;2023-07-13T02:22:34;8.73;;;2.42;;
68803;SDS011;55787;52.678;13.314;2023-07-13T02:25:01;10.50;;;2.83;;
68803;SDS011;55787;52.678;13.314;2023-07-13T02:27:28;8.25;;;2.55;;
68803;SDS011;55787;52.678;13.314;2023-07-13T02:29:55;8.70;;;2.83;;
68803;SDS011;55787;52.678;13.314;2023-07-13T02:32:22;7.40;;;2.45;;
68803;SDS011;55787;52.678;13.314;2023-07-13T02:34:51;8.75;;;2.65;;
68803;SDS011;55787;52.678;13.314;2023-07-13T02:37:19;8.65;;;2.50;;
68803;SDS011;55787;52.678;13.314;2023-07-13T02:39:45;8.30;;;3.20;;
68803;SDS011;55787;52.678;13.314;2023-07-13T02:42:12;8.88;;;2.60;;
68803;SDS011;55787;52.678;13.314;2023-07-13T02:44:39;7.95;;;2.70;;
68803;SDS011;55787;52.678;13.314;2023-07-13T02:47:05;8.90;;;2.63;;
68803;SDS011;55787;52.678;13.314;2023-07-13T02:49:32;7.28;;;2.67;;
68803;SDS011;55787;52.678;13.314;2023-07-13T02:51:59;10.30;;;2.72;;
68803;SDS011;55787;52.678;13.314;2023-07-13T02:54:25;9.32;;;2.70;;
68803;SDS011;55787;52.678;13.314;2023-07-13T02:56:52;9.40;;;2.78;;
68803;SDS011;55787;52.678;13.314;2023-07-13T02:59:19;8.57;;;2.60;;
68803;SDS011;55787;52.678;13.314;2023-07-13T03:01:46;9.20;;;2.85;;
68803;SDS011;55787;52.678;13.314;2023-07-13T03:04:13;7.93;;;2.85;;
68803;SDS011;55787;52.678;13.314;2023-07-13T03:06:40;7.18;;;2.40;;
68803;SDS011;55787;52.678;13.314;2023-07-13T03:09:07;7.43;;;2.38;;
68803;SDS011;55787;52.678;13.314;2023-07-13T03:11:34;8.02;;;2.58;;
68803;SDS011;55787;52.678;13.314;2023-07-13T03:14:01;7.55;;;2.13;;
68803;SDS011;55787;52.678;13.314;2023-07-13T03:16:28;8.77;;;2.38;;
68803;SDS011;55787;52.678;13.314;2023-07-13T03:18:55;7.85;;;2.55;;
68803;SDS011;55787;52.678;13.314;2023-07-13T03:21:21;8.15;;;2.58;;
68803;SDS011;55787;52.678;13.314;2023-07-13T03:23:48;9.32;;;2.55;;
68803;SDS011;55787;52.678;13.314;2023-07-13T03:26:16;6.35;;;2.15;;
68803;SDS011;55787;52.678;13.314;2023-07-13T03:28:45;7.68;;;2.38;;
68803;SDS011;55787;52.678;13.314;2023-07-13T03:31:14;8.57;;;2.67;;
68803;SDS011;55787;52.678;13.314;2023-07-13T03:33:43;7.80;;;2.35;;
68803;SDS011;55787;52.678;13.314;2023-07-13T03:36:15;7.75;;;2.40;;
68803;SDS011;55787;52.678;13.314;2023-07-13T03:38:47;7.72;;;2.50;;
68803;SDS011;55787;52.678;13.314;2023-07-13T03:41:15;9.23;;;2.63;;
68803;SDS011;55787;52.678;13.314;2023-07-13T03:43:42;7.90;;;2.53;;
68803;SDS011;55787;52.678;13.314;2023-07-13T03:46:09;9.75;;;2.50;;
68803;SDS011;55787;52.678;13.314;2023-07-13T03:48:37;7.68;;;2.72;;
68803;SDS011;55787;52.678;13.314;2023-07-13T03:51:06;9.68;;;2.90;;
68803;SDS011;55787;52.678;13.314;2023-07-13T03:53:32;12.38;;;2.58;;
68803;SDS011;55787;52.678;13.314;2023-07-13T03:55:59;9.82;;;2.85;;
68803;SDS011;55787;52.678;13.314;2023-07-13T03:58:30;9.13;;;2.88;;
68803;SDS011;55787;52.678;13.314;2023-07-13T04:00:59;9.40;;;2.40;;
68803;SDS011;55787;52.678;13.314;2023-07-13T04:03:27;10.27;;;2.65;;
68803;SDS011;55787;52.678;13.314;2023-07-13T04:05:55;8.05;;;2.45;;
68803;SDS011;55787;52.678;13.314;2023-07-13T04:08:30;8.55;;;2.55;;
68803;SDS011;55787;52.678;13.314;2023-07-13T04:10:59;9.57;;;2.33;;
68803;SDS011;55787;52.678;13.314;2023-07-13T04:13:26;9.02;;;2.70;;
68803;SDS011;55787;52.678;13.314;2023-07-13T04:15:53;8.38;;;2.55;;
68803;SDS011;55787;52.678;13.314;2023-07-13T04:18:20;9.60;;;2.88;;
68803;SDS011;55787;52.678;13.314;2023-07-13T04:20:48;8.75;;;2.80;;
68803;SDS011;55787;52.678;13.314;2023-07-13T04:23:16;8.32;;;2.60;;
68803;SDS011;55787;52.678;13.314;2023-07-13T04:25:44;9.38;;;2.50;;
68803;SDS011;55787;52.678;13.314;2023-07-13T04:28:11;10.25;;;2.83;;
68803;SDS011;55787;52.678;13.314;2023-07-13T04:30:38;8.70;;;2.50;;
68803;SDS011;55787;52.678;13.314;2023-07-13T04:33:05;9.13;;;2.78;;
68803;SDS011;55787;52.678;13.314;2023-07-13T04:35:31;8.27;;;2.78;;
68803;SDS011;55787;52.678;13.314;2023-07-13T04:37:58;8.98;;;2.70;;
68803;SDS011;55787;52.678;13.314;2023-07-13T04:40:25;11.02;;;3.05;;
68803;SDS011;55787;52.678;13.314;2023-07-13T04:42:54;7.78;;;2.88;;
68803;SDS011;55787;52.678;13.314;2023-07-13T04:45:21;8.23;;;2.55;;
68803;SDS011;55787;52.678;13.314;2023-07-13T04:47:48;8.98;;;2.83;;
68803;SDS011;55787;52.678;13.314;2023-07-13T04:50:15;8.27;;;2.72;;
68803;SDS011;55787;52.678;13.314;2023-07-13T04:52:46;7.88;;;2.50;;
68803;SDS011;55787;52.678;13.314;2023-07-13T04:55:13;8.73;;;2.88;;
68803;SDS011;55787;52.678;13.314;2023-07-13T04:57:40;7.97;;;2.53;;
68803;SDS011;55787;52.678;13.314;2023-07-13T05:00:07;6.97;;;2.33;;
68803;SDS011;55787;52.678;13.314;2023-07-13T05:02:34;7.88;;;2.40;;
68803;SDS011;55787;52.678;13.314;2023-07-13T05:05:01;7.75;;;2.50;;
68803;SDS011;55787;52.678;13.314;2023-07-13T05:07:30;7.22;;;2.50;;
68803;SDS011;55787;52.678;13.314;2023-07-13T05:09:59;8.88;;;2.30;;
68803;SDS011;55787;52.678;13.314;2023-07-13T05:12:26;8.00;;;2.47;;
68803;SDS011;55787;52.678;13.314;2023-07-13T05:14:53;7.45;;;2.40;;
68803;SDS011;55787;52.678;13.314;2023-07-13T05:17:20;7.47;;;2.45;;
68803;SDS011;55787;52.678;13.314;2023-07-13T05:19:47;7.40;;;2.42;;
68803;SDS011;55787;52.678;13.314;2023-07-13T05:22:13;7.75;;;2.38;;
68803;SDS011;55787;52.678;13.314;2023-07-13T05:24:40;7.55;;;2.15;;
68803;SDS011;55787;52.678;13.314;2023-07-13T05:27:07;9.75;;;2.65;;
68803;SDS011;55787;52.678;13.314;2023-07-13T05:29:34;9.32;;;2.40;;
68803;SDS011;55787;52.678;13.314;2023-07-13T05:32:00;8.30;;;2.50;;
68803;SDS011;55787;52.678;13.314;2023-07-13T05:34:27;8.77;;;2.42;;
68803;SDS011;55787;52.678;13.314;2023-07-13T05:36:55;6.70;;;2.10;;
68803;SDS011;55787;52.678;13.314;2023-07-13T05:39:22;8.60;;;2.47;;
68803;SDS011;55787;52.678;13.314;2023-07-13T05:41:48;8.95;;;2.15;;
68803;SDS011;55787;52.678;13.314;2023-07-13T05:44:15;8.65;;;2.00;;
68803;SDS011;55787;52.678;13.314;2023-07-13T05:46:42;7.53;;;2.08;;
68803;SDS011;55787;52.678;13.314;2023-07-13T05:49:08;6.70;;;2.05;;
68803;SDS011;55787;52.678;13.314;2023-07-13T05:51:35;7.18;;;2.00;;
68803;SDS011;55787;52.678;13.314;2023-07-13T05:54:02;6.68;;;2.10;;
68803;SDS011;55787;52.678;13.314;2023-07-13T05:56:29;6.68;;;2.00;;
68803;SDS011;55787;52.678;13.314;2023-07-13T05:58:56;7.40;;;1.88;;
68803;SDS011;55787;52.678;13.314;2023-07-13T06:01:23;7.07;;;2.00;;
68803;SDS011;55787;52.678;13.314;2023-07-13T06:03:50;6.22;;;1.90;;
68803;SDS011;55787;52.678;13.314;2023-07-13T06:06:17;7.05;;;1.85;;
68803;SDS011;55787;52.678;13.314;2023-07-13T06:08:43;8.20;;;1.85;;
68803;SDS011;55787;52.678;13.314;2023-07-13T06:13:41;6.95;;;1.80;;
68803;SDS011;55787;52.678;13.314;2023-07-13T06:16:08;7.30;;;1.80;;
68803;SDS011;55787;52.678;13.314;2023-07-13T06:18:35;7.35;;;1.80;;
68803;SDS011;55787;52.678;13.314;2023-07-13T06:21:13;5.55;;;1.85;;
68803;SDS011;55787;52.678;13.314;2023-07-13T06:23:45;5.50;;;1.90;;
68803;SDS011;55787;52.678;13.314;2023-07-13T06:26:14;6.85;;;1.70;;
68803;SDS011;55787;52.678;13.314;2023-07-13T06:28:41;6.25;;;1.83;;
68803;SDS011;55787;52.678;13.314;2023-07-13T06:31:08;6.53;;;2.10;;
68803;SDS011;55787;52.678;13.314;2023-07-13T06:33:36;7.25;;;2.10;;
68803;SDS011;55787;52.678;13.314;2023-07-13T06:36:04;5.95;;;1.90;;
68803;SDS011;55787;52.678;13.314;2023-07-13T06:38:31;5.47;;;1.95;;
68803;SDS011;55787;52.678;13.314;2023-07-13T06:40:58;5.90;;;1.90;;
68803;SDS011;55787;52.678;13.314;2023-07-13T06:43:25;5.53;;;2.05;;
68803;SDS011;55787;52.678;13.314;2023-07-13T06:45:54;5.68;;;2.08;;
68803;SDS011;55787;52.678;13.314;2023-07-13T06:48:21;5.82;;;2.05;;
68803;SDS011;55787;52.678;13.314;2023-07-13T06:50:48;6.20;;;1.60;;
68803;SDS011;55787;52.678;13.314;2023-07-13T06:53:20;6.80;;;2.40;;
68803;SDS011;55787;52.678;13.314;2023-07-13T06:55:48;6.88;;;2.00;;
68803;SDS011;55787;52.678;13.314;2023-07-13T06:58:16;6.22;;;1.52;;
68803;SDS011;55787;52.678;13.314;2023-07-13T07:00:43;5.85;;;1.90;;
68803;SDS011;55787;52.678;13.314;2023-07-13T07:03:10;5.60;;;1.88;;
68803;SDS011;55787;52.678;13.314;2023-07-13T07:05:37;7.00;;;2.10;;
68803;SDS011;55787;52.678;13.314;2023-07-13T07:08:04;6.25;;;2.10;;
68803;SDS011;55787;52.678;13.314;2023-07-13T07:10:31;6.03;;;2.00;;
68803;SDS011;55787;52.678;13.314;2023-07-13T07:12:58;8.65;;;2.10;;
68803;SDS011;55787;52.678;13.314;2023-07-13T07:15:25;6.70;;;1.90;;
68803;SDS011;55787;52.678;13.314;2023-07-13T07:17:53;6.70;;;2.33;;
68803;SDS011;55787;52.678;13.314;2023-07-13T07:20:19;5.72;;;2.00;;
68803;SDS011;55787;52.678;13.314;2023-07-13T07:22:47;5.50;;;2.15;;
68803;SDS011;55787;52.678;13.314;2023-07-13T07:25:15;5.18;;;1.75;;
68803;SDS011;55787;52.678;13.314;2023-07-13T07:27:42;5.80;;;1.80;;
68803;SDS011;55787;52.678;13.314;2023-07-13T07:30:12;7.55;;;2.00;;
68803;SDS011;55787;52.678;13.314;2023-07-13T07:32:41;6.05;;;2.15;;
68803;SDS011;55787;52.678;13.314;2023-07-13T07:35:23;5.75;;;2.10;;
68803;SDS011;55787;52.678;13.314;2023-07-13T07:37:50;5.90;;;1.92;;
68803;SDS011;55787;52.678;13.314;2023-07-13T07:40:17;6.22;;;2.30;;
68803;SDS011;55787;52.678;13.314;2023-07-13T07:42:47;5.45;;;2.28;;
68803;SDS011;55787;52.678;13.314;2023-07-13T07:45:14;6.18;;;2.13;;
68803;SDS011;55787;52.678;13.314;2023-07-13T07:47:41;6.55;;;2.35;;
68803;SDS011;55787;52.678;13.314;2023-07-13T07:50:08;6.80;;;2.08;;
68803;SDS011;55787;52.678;13.314;2023-07-13T07:52:36;5.85;;;2.03;;
68803;SDS011;55787;52.678;13.314;2023-07-13T07:55:06;5.53;;;1.92;;
68803;SDS011;55787;52.678;13.314;2023-07-13T07:57:36;5.35;;;2.10;;
68803;SDS011;55787;52.678;13.314;2023-07-13T08:00:06;6.30;;;2.17;;
68803;SDS011;55787;52.678;13.314;2023-07-13T08:02:36;5.80;;;2.33;;
68803;SDS011;55787;52.678;13.314;2023-07-13T08:05:06;5.32;;;1.90;;
68803;SDS011;55787;52.678;13.314;2023-07-13T08:07:39;5.68;;;1.70;;
68803;SDS011;55787;52.678;13.314;2023-07-13T08:10:06;5.13;;;1.52;;
68803;SDS011;55787;52.678;13.314;2023-07-13T08:12:34;5.80;;;1.90;;
68803;SDS011;55787;52.678;13.314;2023-07-13T08:15:05;5.40;;;1.88;;
68803;SDS011;55787;52.678;13.314;2023-07-13T08:17:33;5.28;;;1.50;;
68803;SDS011;55787;52.678;13.314;2023-07-13T08:20:00;5.68;;;2.22;;
68803;SDS011;55787;52.678;13.314;2023-07-13T08:22:26;6.43;;;1.90;;
68803;SDS011;55787;52.678;13.314;2023-07-13T08:24:53;5.30;;;1.90;;
68803;SDS011;55787;52.678;13.314;2023-07-13T08:27:23;5.28;;;2.00;;
68803;SDS011;55787;52.678;13.314;2023-07-13T08:29:51;5.43;;;2.20;;
68803;SDS011;55787;52.678;13.314;2023-07-13T08:32:20;5.20;;;2.45;;
68803;SDS011;55787;52.678;13.314;2023-07-13T08:34:48;5.05;;;1.58;;
68803;SDS011;55787;52.678;13.314;2023-07-13T08:37:15;4.95;;;1.70;;
68803;SDS011;55787;52.678;13.314;2023-07-13T08:39:43;5.25;;;1.75;;
68803;SDS011;55787;52.678;13.314;2023-07-13T08:42:14;5.63;;;1.70;;
68803;SDS011;55787;52.678;13.314;2023-07-13T08:48:00;5.30;;;2.00;;
68803;SDS011;55787;52.678;13.314;2023-07-13T08:50:30;5.63;;;2.40;;
68803;SDS011;55787;52.678;13.314;2023-07-13T08:53:20;6.05;;;2.10;;
68803;SDS011;55787;52.678;13.314;2023-07-13T08:55:52;5.22;;;2.05;;
68803;SDS011;55787;52.678;13.314;2023-07-13T08:58:24;5.47;;;2.17;;
68803;SDS011;55787;52.678;13.314;2023-07-13T09:01:03;5.05;;;2.05;;
68803;SDS011;55787;52.678;13.314;2023-07-13T09:03:40;5.13;;;2.35;;
68803;SDS011;55787;52.678;13.314;2023-07-13T09:06:28;5.30;;;2.33;;
68803;SDS011;55787;52.678;13.314;2023-07-13T09:09:02;6.00;;;2.28;;
68803;SDS011;55787;52.678;13.314;2023-07-13T09:11:39;7.32;;;2.53;;
68803;SDS011;55787;52.678;13.314;2023-07-13T09:17:20;6.45;;;2.63;;
68803;SDS011;55787;52.678;13.314;2023-07-13T09:19:58;5.75;;;2.78;;
68803;SDS011;55787;52.678;13.314;2023-07-13T09:22:31;4.90;;;1.70;;
68803;SDS011;55787;52.678;13.314;2023-07-13T09:25:04;5.30;;;1.70;;
68803;SDS011;55787;52.678;13.314;2023-07-13T09:27:39;5.15;;;1.48;;
68803;SDS011;55787;52.678;13.314;2023-07-13T09:32:35;5.90;;;1.60;;
68803;SDS011;55787;52.678;13.314;2023-07-13T09:35:09;5.30;;;1.85;;
68803;SDS011;55787;52.678;13.314;2023-07-13T09:37:38;5.50;;;1.50;;
68803;SDS011;55787;52.678;13.314;2023-07-13T09:40:10;5.55;;;1.50;;
68803;SDS011;55787;52.678;13.314;2023-07-13T09:42:53;5.25;;;1.50;;
68803;SDS011;55787;52.678;13.314;2023-07-13T09:45:27;4.90;;;1.33;;
68803;SDS011;55787;52.678;13.314;2023-07-13T09:47:59;6.07;;;1.25;;
68803;SDS011;55787;52.678;13.314;2023-07-13T09:50:31;5.85;;;1.25;;
68803;SDS011;55787;52.678;13.314;2023-07-13T09:52:57;5.93;;;1.30;;
68803;SDS011;55787;52.678;13.314;2023-07-13T09:58:05;4.97;;;1.15;;
68803;SDS011;55787;52.678;13.314;2023-07-13T10:00:41;5.22;;;1.50;;
68803;SDS011;55787;52.678;13.314;2023-07-13T10:03:17;5.78;;;1.85;;
68803;SDS011;55787;52.678;13.314;2023-07-13T10:05:47;5.25;;;1.70;;
68803;SDS011;55787;52.678;13.314;2023-07-13T10:08:17;5.45;;;2.13;;
68803;SDS011;55787;52.678;13.314;2023-07-13T10:11:09;6.95;;;1.90;;
68803;SDS011;55787;52.678;13.314;2023-07-13T10:13:43;7.63;;;2.30;;
68803;SDS011;55787;52.678;13.314;2023-07-13T10:16:15;5.78;;;2.33;;
68803;SDS011;55787;52.678;13.314;2023-07-13T10:18:49;5.45;;;1.60;;
68803;SDS011;55787;52.678;13.314;2023-07-13T10:21:20;5.97;;;2.50;;
68803;SDS011;55787;52.678;13.314;2023-07-13T10:23:55;5.75;;;1.90;;
68803;SDS011;55787;52.678;13.314;2023-07-13T10:26:26;7.47;;;1.90;;
68803;SDS011;55787;52.678;13.314;2023-07-13T10:28:57;6.93;;;1.85;;
68803;SDS011;55787;52.678;13.314;2023-07-13T10:31:27;6.03;;;1.95;;
68803;SDS011;55787;52.678;13.314;2023-07-13T10:33:54;5.95;;;1.60;;
68803;SDS011;55787;52.678;13.314;2023-07-13T10:39:21;5.85;;;2.10;;
68803;SDS011;55787;52.678;13.314;2023-07-13T10:41:53;5.50;;;2.03;;
68803;SDS011;55787;52.678;13.314;2023-07-13T10:44:25;7.20;;;2.15;;
68803;SDS011;55787;52.678;13.314;2023-07-13T10:47:16;6.40;;;1.80;;
68803;SDS011;55787;52.678;13.314;2023-07-13T10:49:53;5.60;;;1.75;;
68803;SDS011;55787;52.678;13.314;2023-07-13T10:52:40;6.10;;;1.95;;
68803;SDS011;55787;52.678;13.314;2023-07-13T10:58:00;6.32;;;2.13;;
68803;SDS011;55787;52.678;13.314;2023-07-13T11:00:31;5.50;;;2.30;;
68803;SDS011;55787;52.678;13.314;2023-07-13T11:03:00;6.88;;;2.13;;
68803;SDS011;55787;52.678;13.314;2023-07-13T11:05:30;6.85;;;2.22;;
68803;SDS011;55787;52.678;13.314;2023-07-13T11:11:00;6.03;;;2.40;;
68803;SDS011;55787;52.678;13.314;2023-07-13T11:16:12;5.97;;;2.45;;
68803;SDS011;55787;52.678;13.314;2023-07-13T11:18:48;6.53;;;2.30;;
68803;SDS011;55787;52.678;13.314;2023-07-13T11:21:21;6.72;;;2.63;;
68803;SDS011;55787;52.678;13.314;2023-07-13T11:24:04;5.88;;;2.53;;
68803;SDS011;55787;52.678;13.314;2023-07-13T11:26:44;6.30;;;2.78;;
68803;SDS011;55787;52.678;13.314;2023-07-13T11:31:54;5.75;;;2.33;;
68803;SDS011;55787;52.678;13.314;2023-07-13T11:34:40;6.10;;;2.53;;
68803;SDS011;55787;52.678;13.314;2023-07-13T11:37:10;5.68;;;2.00;;
68803;SDS011;55787;52.678;13.314;2023-07-13T11:39:41;6.90;;;2.30;;
68803;SDS011;55787;52.678;13.314;2023-07-13T11:42:13;6.20;;;2.08;;
68803;SDS011;55787;52.678;13.314;2023-07-13T11:44:44;6.30;;;2.00;;
68803;SDS011;55787;52.678;13.314;2023-07-13T11:47:33;5.97;;;1.80;;
68803;SDS011;55787;52.678;13.314;2023-07-13T11:50:00;5.72;;;1.70;;
68803;SDS011;55787;52.678;13.314;2023-07-13T11:52:31;5.80;;;1.80;;
68803;SDS011;55787;52.678;13.314;2023-07-13T11:55:00;5.75;;;1.90;;
68803;SDS011;55787;52.678;13.314;2023-07-13T11:57:31;5.45;;;1.83;;
68803;SDS011;55787;52.678;13.314;2023-07-13T12:00:09;6.65;;;2.45;;
68803;SDS011;55787;52.678;13.314;2023-07-13T12:02:42;6.05;;;1.75;;
68803;SDS011;55787;52.678;13.314;2023-07-13T12:05:12;6.72;;;2.35;;
68803;SDS011;55787;52.678;13.314;2023-07-13T12:07:41;5.57;;;2.08;;
68803;SDS011;55787;52.678;13.314;2023-07-13T12:12:36;6.25;;;1.95;;
68803;SDS011;55787;52.678;13.314;2023-07-13T12:15:07;6.25;;;1.92;;
68803;SDS011;55787;52.678;13.314;2023-07-13T12:17:34;6.07;;;2.10;;
68803;SDS011;55787;52.678;13.314;2023-07-13T12:20:03;6.22;;;2.00;;
68803;SDS011;55787;52.678;13.314;2023-07-13T12:22:46;6.05;;;2.20;;
68803;SDS011;55787;52.678;13.314;2023-07-13T12:25:14;5.95;;;2.10;;
68803;SDS011;55787;52.678;13.314;2023-07-13T12:27:42;6.20;;;1.92;;
68803;SDS011;55787;52.678;13.314;2023-07-13T12:30:26;6.68;;;2.00;;
68803;SDS011;55787;52.678;13.314;2023-07-13T12:33:01;6.82;;;2.20;;
68803;SDS011;55787;52.678;13.314;2023-07-13T12:35:42;6.13;;;2.25;;
68803;SDS011;55787;52.678;13.314;2023-07-13T12:38:13;6.30;;;2.30;;
68803;SDS011;55787;52.678;13.314;2023-07-13T12:40:40;6.70;;;2.17;;
68803;SDS011;55787;52.678;13.314;2023-07-13T12:43:13;7.65;;;2.40;;
68803;SDS011;55787;52.678;13.314;2023-07-13T12:46:02;7.30;;;2.30;;
68803;SDS011;55787;52.678;13.314;2023-07-13T12:48:29;6.82;;;2.17;;
68803;SDS011;55787;52.678;13.314;2023-07-13T12:51:13;6.32;;;2.50;;
68803;SDS011;55787;52.678;13.314;2023-07-13T12:53:41;6.90;;;2.05;;
68803;SDS011;55787;52.678;13.314;2023-07-13T12:56:16;5.45;;;1.83;;
68803;SDS011;55787;52.678;13.314;2023-07-13T12:58:48;6.63;;;2.10;;
68803;SDS011;55787;52.678;13.314;2023-07-13T13:01:21;6.13;;;2.05;;
68803;SDS011;55787;52.678;13.314;2023-07-13T13:03:52;6.70;;;2.00;;
68803;SDS011;55787;52.678;13.314;2023-07-13T13:06:24;5.80;;;2.20;;
68803;SDS011;55787;52.678;13.314;2023-07-13T13:08:54;7.53;;;2.92;;
68803;SDS011;55787;52.678;13.314;2023-07-13T13:11:25;6.35;;;2.42;;
68803;SDS011;55787;52.678;13.314;2023-07-13T13:13:53;7.65;;;2.50;;
68803;SDS011;55787;52.678;13.314;2023-07-13T13:18:59;5.88;;;2.08;;
68803;SDS011;55787;52.678;13.314;2023-07-13T13:21:29;5.80;;;1.90;;
68803;SDS011;55787;52.678;13.314;2023-07-13T13:23:57;6.43;;;2.10;;
68803;SDS011;55787;52.678;13.314;2023-07-13T13:26:24;5.55;;;2.05;;
68803;SDS011;55787;52.678;13.314;2023-07-13T13:28:52;7.60;;;2.33;;
68803;SDS011;55787;52.678;13.314;2023-07-13T13:31:19;6.60;;;2.00;;
68803;SDS011;55787;52.678;13.314;2023-07-13T13:33:46;6.45;;;2.10;;
68803;SDS011;55787;52.678;13.314;2023-07-13T13:36:21;7.65;;;2.22;;
68803;SDS011;55787;52.678;13.314;2023-07-13T13:38:49;5.40;;;1.60;;
68803;SDS011;55787;52.678;13.314;2023-07-13T13:41:17;6.25;;;2.05;;
68803;SDS011;55787;52.678;13.314;2023-07-13T13:43:43;5.97;;;1.83;;
68803;SDS011;55787;52.678;13.314;2023-07-13T13:46:19;6.75;;;2.20;;
68803;SDS011;55787;52.678;13.314;2023-07-13T13:48:51;7.20;;;2.03;;
68803;SDS011;55787;52.678;13.314;2023-07-13T13:51:21;6.10;;;1.80;;
68803;SDS011;55787;52.678;13.314;2023-07-13T13:53:50;6.78;;;1.70;;
68803;SDS011;55787;52.678;13.314;2023-07-13T13:56:17;6.15;;;1.90;;
68803;SDS011;55787;52.678;13.314;2023-07-13T13:58:45;5.45;;;1.60;;
68803;SDS011;55787;52.678;13.314;2023-07-13T14:01:20;6.32;;;2.00;;
68803;SDS011;55787;52.678;13.314;2023-07-13T14:03:49;5.82;;;1.83;;
68803;SDS011;55787;52.678;13.314;2023-07-13T14:06:18;6.97;;;1.90;;
68803;SDS011;55787;52.678;13.314;2023-07-13T14:08:45;6.30;;;1.70;;
68803;SDS011;55787;52.678;13.314;2023-07-13T14:11:14;7.00;;;1.70;;
68803;SDS011;55787;52.678;13.314;2023-07-13T14:13:44;6.03;;;2.03;;
68803;SDS011;55787;52.678;13.314;2023-07-13T14:16:16;5.88;;;1.60;;
68803;SDS011;55787;52.678;13.314;2023-07-13T14:18:44;6.32;;;1.90;;
68803;SDS011;55787;52.678;13.314;2023-07-13T14:21:15;7.65;;;1.85;;
68803;SDS011;55787;52.678;13.314;2023-07-13T14:23:47;6.18;;;1.95;;
68803;SDS011;55787;52.678;13.314;2023-07-13T14:26:16;5.30;;;1.90;;
68803;SDS011;55787;52.678;13.314;2023-07-13T14:28:48;6.28;;;1.90;;
68803;SDS011;55787;52.678;13.314;2023-07-13T14:31:16;6.68;;;1.90;;
68803;SDS011;55787;52.678;13.314;2023-07-13T14:33:44;6.95;;;1.95;;
68803;SDS011;55787;52.678;13.314;2023-07-13T14:38:53;6.25;;;1.73;;
68803;SDS011;55787;52.678;13.314;2023-07-13T14:41:19;5.75;;;1.50;;
68803;SDS011;55787;52.678;13.314;2023-07-13T14:43:47;5.25;;;1.70;;
68803;SDS011;55787;52.678;13.314;2023-07-13T14:48:50;8.32;;;1.65;;
68803;SDS011;55787;52.678;13.314;2023-07-13T14:51:17;5.57;;;1.60;;
68803;SDS011;55787;52.678;13.314;2023-07-13T14:53:44;5.80;;;1.63;;
68803;SDS011;55787;52.678;13.314;2023-07-13T14:56:10;5.32;;;1.45;;
68803;SDS011;55787;52.678;13.314;2023-07-13T14:58:38;9.57;;;1.60;;
68803;SDS011;55787;52.678;13.314;2023-07-13T15:01:13;6.40;;;1.50;;
68803;SDS011;55787;52.678;13.314;2023-07-13T15:03:43;6.00;;;1.42;;
68803;SDS011;55787;52.678;13.314;2023-07-13T15:06:12;5.90;;;1.05;;
68803;SDS011;55787;52.678;13.314;2023-07-13T15:08:40;5.10;;;1.38;;
68803;SDS011;55787;52.678;13.314;2023-07-13T15:11:10;4.95;;;1.13;;
68803;SDS011;55787;52.678;13.314;2023-07-13T15:13:38;4.70;;;0.93;;
68803;SDS011;55787;52.678;13.314;2023-07-13T15:16:16;5.10;;;1.25;;
68803;SDS011;55787;52.678;13.314;2023-07-13T15:18:47;4.80;;;0.80;;
68803;SDS011;55787;52.678;13.314;2023-07-13T15:21:16;5.68;;;1.10;;
68803;SDS011;55787;52.678;13.314;2023-07-13T15:23:48;4.72;;;1.15;;
68803;SDS011;55787;52.678;13.314;2023-07-13T15:26:16;4.68;;;0.98;;